createdAt,value
2018-06-01T00:00:29.267Z,11.80
2018-06-01T00:02:57.645Z,11.67
2018-06-01T00:05:25.999Z,11.97
2018-06-01T00:08:20.366Z,11.87
2018-06-01T00:10:48.685Z,11.67
2018-06-01T00:13:17.065Z,11.33
2018-06-01T00:15:45.444Z,11.67
2018-06-01T00:18:13.797Z,11.77
2018-06-01T00:20:42.507Z,12.20
2018-06-01T00:23:10.884Z,12.47
2018-06-01T00:25:39.260Z,12.30
2018-06-01T00:28:07.640Z,12.97
2018-06-01T00:30:36.047Z,12.70
2018-06-01T00:33:04.398Z,14.03
2018-06-01T00:35:32.746Z,13.10
2018-06-01T00:38:01.126Z,12.53
2018-06-01T00:40:29.607Z,13.33
2018-06-01T00:42:57.910Z,13.37
2018-06-01T00:45:26.259Z,13.30
2018-06-01T00:47:54.769Z,12.97
2018-06-01T00:50:23.002Z,12.73
2018-06-01T00:52:51.322Z,14.07
2018-06-01T00:55:23.420Z,13.30
2018-06-01T00:57:51.741Z,13.70
2018-06-01T01:00:20.044Z,12.87
2018-06-01T01:02:48.278Z,12.77
2018-06-01T01:05:16.587Z,13.50
2018-06-01T01:07:44.844Z,13.70
2018-06-01T01:10:13.216Z,15.07
2018-06-01T01:12:41.596Z,14.30
2018-06-01T01:15:10.003Z,12.13
2018-06-01T01:17:38.352Z,11.20
2018-06-01T01:20:06.573Z,11.50
2018-06-01T01:22:34.893Z,10.57
2018-06-01T01:25:03.392Z,11.03
2018-06-01T01:27:31.894Z,11.33
2018-06-01T01:30:00.166Z,11.70
2018-06-01T01:32:28.540Z,10.37
2018-06-01T01:34:57.022Z,10.40
2018-06-01T01:37:30.401Z,10.67
2018-06-01T01:39:58.651Z,11.27
2018-06-01T01:42:26.973Z,11.10
2018-06-01T01:44:55.227Z,10.77
2018-06-01T01:47:23.479Z,10.87
2018-06-01T01:49:52.614Z,10.70
2018-06-01T01:52:21.100Z,10.57
2018-06-01T01:54:49.478Z,10.70
2018-06-01T01:57:17.749Z,11.30
2018-06-01T01:59:46.027Z,10.97
2018-06-01T02:02:14.262Z,10.93
2018-06-01T02:04:42.551Z,10.43
2018-06-01T02:07:10.958Z,10.33
2018-06-01T02:09:39.337Z,10.67
2018-06-01T02:12:07.713Z,10.30
2018-06-01T02:14:35.962Z,10.13
2018-06-01T02:17:04.368Z,10.33
2018-06-01T02:19:32.745Z,10.23
2018-06-01T02:22:01.097Z,10.50
2018-06-01T02:24:29.402Z,10.30
2018-06-01T02:26:57.678Z,11.13
2018-06-01T02:29:26.053Z,11.57
2018-06-01T02:31:54.531Z,10.77
2018-06-01T02:34:23.015Z,11.20
2018-06-01T02:36:51.496Z,10.13
2018-06-01T02:39:19.902Z,9.87
2018-06-01T02:41:48.336Z,9.90
2018-06-01T02:44:16.634Z,9.67
2018-06-01T02:46:44.889Z,9.47
2018-06-01T02:49:13.285Z,10.33
2018-06-01T02:51:41.551Z,10.70
2018-06-01T02:54:10.038Z,9.40
2018-06-01T02:56:38.362Z,9.87
2018-06-01T02:59:06.707Z,10.33
2018-06-01T03:01:35.043Z,10.20
2018-06-01T03:04:03.347Z,9.47
2018-06-01T03:06:37.976Z,10.07
2018-06-01T03:09:06.353Z,10.37
2018-06-01T03:11:34.706Z,9.50
2018-06-01T03:14:03.214Z,9.60
2018-06-01T03:16:31.464Z,9.43
2018-06-01T03:18:59.739Z,9.73
2018-06-01T03:21:28.035Z,9.87
2018-06-01T03:23:56.305Z,8.70
2018-06-01T03:26:24.795Z,9.07
2018-06-01T03:28:53.025Z,9.90
2018-06-01T03:31:21.246Z,9.43
2018-06-01T03:33:49.927Z,10.33
2018-06-01T03:36:18.306Z,9.87
2018-06-01T03:38:46.683Z,10.60
2018-06-01T03:41:15.062Z,10.60
2018-06-01T03:43:43.441Z,10.07
2018-06-01T03:46:11.816Z,10.80
2018-06-01T03:48:40.193Z,10.27
2018-06-01T03:51:08.575Z,10.90
2018-06-01T03:53:36.825Z,9.83
2018-06-01T03:56:05.122Z,9.83
2018-06-01T03:58:33.347Z,9.97
2018-06-01T04:01:01.648Z,10.33
2018-06-01T04:03:29.927Z,9.97
2018-06-01T04:05:58.229Z,10.37
2018-06-01T04:08:26.503Z,10.60
2018-06-01T04:10:54.846Z,10.30
2018-06-01T04:13:23.171Z,10.90
2018-06-01T04:15:51.408Z,10.60
2018-06-01T04:18:19.695Z,10.77
2018-06-01T04:20:48.086Z,10.77
2018-06-01T04:23:16.466Z,11.47
2018-06-01T04:25:44.739Z,11.77
2018-06-01T04:28:12.987Z,10.87
2018-06-01T04:30:41.294Z,11.80
2018-06-01T04:33:09.669Z,12.70
2018-06-01T04:35:38.227Z,12.77
2018-06-01T04:38:06.531Z,13.50
2018-06-01T04:40:34.945Z,14.30
2018-06-01T04:43:03.288Z,14.10
2018-06-01T04:45:31.660Z,15.77
2018-06-01T04:48:00.249Z,15.07
2018-06-01T04:50:28.495Z,16.77
2018-06-01T04:52:56.803Z,18.00
2018-06-01T04:55:25.071Z,20.83
2018-06-01T04:57:53.425Z,21.90
2018-06-01T05:00:21.725Z,19.50
2018-06-01T05:02:50.110Z,19.80
2018-06-01T05:05:18.589Z,18.70
2018-06-01T05:07:46.941Z,17.57
2018-06-01T05:10:15.343Z,17.23
2018-06-01T05:12:43.616Z,16.23
2018-06-01T05:15:11.867Z,15.43
2018-06-01T05:17:40.168Z,17.23
2018-06-01T05:20:08.515Z,15.83
2018-06-01T05:22:36.853Z,13.40
2018-06-01T05:25:05.179Z,14.13
2018-06-01T05:27:33.581Z,12.80
2018-06-01T05:30:01.960Z,13.57
2018-06-01T05:32:30.310Z,12.60
2018-06-01T05:34:58.590Z,13.67
2018-06-01T05:37:27.030Z,12.40
2018-06-01T05:39:55.340Z,13.07
2018-06-01T05:42:23.646Z,11.93
2018-06-01T05:44:52.002Z,11.13
2018-06-01T05:47:20.265Z,10.50
2018-06-01T05:49:48.674Z,9.80
2018-06-01T05:52:17.154Z,9.47
2018-06-01T05:54:45.410Z,9.90
2018-06-01T05:57:13.812Z,9.93
2018-06-01T05:59:42.116Z,11.13
2018-06-01T06:02:10.447Z,11.70
2018-06-01T06:04:38.757Z,11.77
2018-06-01T06:07:07.120Z,12.53
2018-06-01T06:09:35.600Z,13.47
2018-06-01T06:12:03.872Z,14.80
2018-06-01T06:14:32.253Z,16.20
2018-06-01T06:17:00.504Z,18.73
2018-06-01T06:19:28.801Z,15.77
2018-06-01T06:21:57.194Z,15.27
2018-06-01T06:24:25.663Z,16.30
2018-06-01T06:26:53.887Z,14.77
2018-06-01T06:29:22.215Z,13.40
2018-06-01T06:31:50.465Z,10.63
2018-06-01T06:34:18.693Z,11.23
2018-06-01T06:36:46.922Z,12.30
2018-06-01T06:39:15.221Z,11.30
2018-06-01T06:41:43.678Z,11.17
2018-06-01T06:44:12.160Z,10.13
2018-06-01T06:46:41.072Z,10.93
2018-06-01T06:49:09.452Z,10.67
2018-06-01T06:51:37.822Z,9.37
2018-06-01T06:54:06.199Z,9.30
2018-06-01T06:56:34.431Z,9.27
2018-06-01T06:59:02.715Z,11.30
2018-06-01T07:01:31.134Z,10.13
2018-06-01T07:03:59.363Z,9.27
2018-06-01T07:06:27.695Z,8.43
2018-06-01T07:08:55.957Z,8.30
2018-06-01T07:11:24.280Z,8.50
2018-06-01T07:13:52.610Z,8.00
2018-06-01T07:16:20.985Z,8.63
2018-06-01T07:18:49.371Z,8.33
2018-06-01T07:21:17.952Z,8.10
2018-06-01T07:23:46.301Z,8.50
2018-06-01T07:26:14.601Z,8.43
2018-06-01T07:28:42.812Z,8.73
2018-06-01T07:31:11.301Z,8.87
2018-06-01T07:33:39.633Z,7.83
2018-06-01T07:36:07.910Z,7.37
2018-06-01T07:38:36.184Z,7.53
2018-06-01T07:41:04.530Z,7.60
2018-06-01T07:43:32.771Z,7.40
2018-06-01T07:46:01.117Z,8.47
2018-06-01T07:48:29.497Z,7.30
2018-06-01T07:50:57.870Z,7.90
2018-06-01T07:53:26.105Z,7.90
2018-06-01T07:55:54.422Z,7.53
2018-06-01T07:58:22.799Z,6.13
2018-06-01T08:00:51.183Z,6.40
2018-06-01T08:03:19.458Z,6.93
2018-06-01T08:05:47.807Z,7.23
2018-06-01T08:08:16.108Z,7.30
2018-06-01T08:10:44.467Z,6.43
2018-06-01T08:13:12.663Z,6.73
2018-06-01T08:15:41.141Z,5.70
2018-06-01T08:18:09.364Z,6.80
2018-06-01T08:20:37.691Z,6.27
2018-06-01T08:23:05.968Z,5.97
2018-06-01T08:25:34.431Z,6.33
2018-06-01T08:28:02.700Z,6.23
2018-06-01T08:30:30.957Z,6.20
2018-06-01T08:32:59.382Z,5.87
2018-06-01T08:35:27.861Z,6.13
2018-06-01T08:37:56.129Z,6.47
2018-06-01T08:40:24.373Z,6.63
2018-06-01T08:42:52.683Z,6.17
2018-06-01T08:45:20.940Z,6.23
2018-06-01T08:47:49.346Z,6.90
2018-06-01T08:50:17.923Z,6.60
2018-06-01T08:52:46.172Z,7.17
2018-06-01T08:55:14.405Z,6.80
2018-06-01T08:57:42.824Z,7.17
2018-06-01T09:00:11.135Z,6.93
2018-06-01T09:02:39.370Z,7.20
2018-06-01T09:05:07.718Z,7.07
2018-06-01T09:07:36.060Z,6.80
2018-06-01T09:10:04.463Z,6.93
2018-06-01T09:12:32.816Z,6.73
2018-06-01T09:15:01.205Z,6.90
2018-06-01T09:17:29.674Z,7.10
2018-06-01T09:19:57.946Z,7.67
2018-06-01T09:22:26.432Z,7.30
2018-06-01T09:24:54.700Z,7.30
2018-06-01T09:27:22.956Z,7.13
2018-06-01T09:29:51.176Z,7.67
2018-06-01T09:32:19.467Z,6.93
2018-06-01T09:34:47.784Z,6.77
2018-06-01T09:37:16.083Z,7.07
2018-06-01T09:39:44.437Z,6.27
2018-06-01T09:42:13.048Z,6.87
2018-06-01T09:44:41.264Z,6.80
2018-06-01T09:47:09.524Z,7.00
2018-06-01T09:49:38.182Z,6.67
2018-06-01T09:52:06.764Z,6.60
2018-06-01T09:54:35.044Z,6.57
2018-06-01T09:57:03.526Z,6.87
2018-06-01T09:59:31.794Z,9.77
2018-06-01T10:02:00.016Z,7.00
2018-06-01T10:04:28.255Z,7.30
2018-06-01T10:06:56.517Z,6.90
2018-06-01T10:09:24.740Z,6.33
2018-06-01T10:11:53.047Z,5.93
2018-06-01T10:14:21.311Z,6.47
2018-06-01T10:16:49.555Z,6.10
2018-06-01T10:19:17.875Z,5.70
2018-06-01T10:21:46.277Z,5.97
2018-06-01T10:24:14.499Z,6.73
2018-06-01T10:26:42.826Z,6.73
2018-06-01T10:29:11.056Z,6.80
2018-06-01T10:31:39.375Z,7.20
2018-06-01T10:34:07.655Z,7.47
2018-06-01T10:36:36.036Z,6.47
2018-06-01T10:39:04.482Z,7.40
2018-06-01T10:41:32.716Z,6.50
2018-06-01T10:44:00.960Z,6.87
2018-06-01T10:46:29.235Z,6.33
2018-06-01T10:48:57.559Z,6.27
2018-06-01T10:51:25.892Z,6.83
2018-06-01T10:53:54.472Z,5.70
2018-06-01T10:56:23.036Z,5.57
2018-06-01T10:58:51.281Z,5.60
2018-06-01T11:01:19.610Z,5.03
2018-06-01T11:03:47.959Z,5.67
2018-06-01T11:06:16.234Z,5.80
2018-06-01T11:08:44.571Z,6.37
2018-06-01T11:11:12.831Z,6.30
2018-06-01T11:13:41.208Z,6.87
2018-06-01T11:16:09.570Z,6.27
2018-06-01T11:18:38.052Z,5.87
2018-06-01T11:21:06.405Z,5.83
2018-06-01T11:23:34.678Z,4.87
2018-06-01T11:26:02.978Z,5.37
2018-06-01T11:28:31.359Z,5.90
2018-06-01T11:30:59.838Z,5.20
2018-06-01T11:33:28.111Z,5.30
2018-06-01T11:35:56.501Z,5.50
2018-06-01T11:38:24.930Z,5.47
2018-06-01T11:40:53.251Z,6.00
2018-06-01T11:43:21.450Z,5.67
2018-06-01T11:45:49.878Z,5.77
2018-06-01T11:48:18.179Z,6.10
2018-06-01T11:50:46.455Z,5.60
2018-06-01T11:53:14.688Z,6.00
2018-06-01T11:55:43.107Z,6.03
2018-06-01T11:58:11.384Z,5.50
2018-06-01T12:00:39.867Z,6.27
2018-06-01T12:03:08.362Z,6.00
2018-06-01T12:05:36.722Z,6.27
2018-06-01T12:08:05.187Z,5.93
2018-06-01T12:10:33.458Z,5.37
2018-06-01T12:13:01.698Z,5.13
2018-06-01T12:15:30.003Z,5.07
2018-06-01T12:17:58.407Z,5.07
2018-06-01T12:20:26.670Z,5.23
2018-06-01T12:22:55.095Z,5.40
2018-06-01T12:25:23.438Z,7.67
2018-06-01T12:27:51.682Z,5.37
2018-06-01T12:30:20.092Z,5.70
2018-06-01T12:32:48.472Z,5.27
2018-06-01T12:35:16.722Z,5.10
2018-06-01T12:37:45.127Z,5.17
2018-06-01T12:40:13.376Z,5.30
2018-06-01T12:42:41.676Z,4.73
2018-06-01T12:45:10.160Z,5.43
2018-06-01T12:47:38.432Z,4.57
2018-06-01T12:50:06.680Z,4.53
2018-06-01T12:52:35.092Z,4.60
2018-06-01T12:55:03.366Z,4.67
2018-06-01T12:57:31.846Z,6.17
2018-06-01T13:00:00.166Z,6.30
2018-06-01T13:02:28.702Z,6.33
2018-06-01T13:04:56.951Z,6.17
2018-06-01T13:07:25.228Z,5.83
2018-06-01T13:09:53.833Z,5.13
2018-06-01T13:12:22.088Z,5.60
2018-06-01T13:14:50.489Z,5.47
2018-06-01T13:17:18.871Z,5.90
2018-06-01T13:19:47.246Z,5.50
2018-06-01T13:22:15.704Z,5.00
2018-06-01T13:24:44.003Z,5.23
2018-06-01T13:27:12.287Z,4.70
2018-06-01T13:29:40.761Z,6.00
2018-06-01T13:32:09.112Z,5.17
2018-06-01T13:34:37.515Z,5.03
2018-06-01T13:37:05.888Z,5.07
2018-06-01T13:39:34.276Z,5.50
2018-06-01T13:42:02.502Z,4.57
2018-06-01T13:44:30.824Z,4.03
2018-06-01T13:46:59.178Z,4.30
2018-06-01T13:49:27.550Z,4.30
2018-06-01T13:51:55.933Z,4.00
2018-06-01T13:54:24.293Z,4.03
2018-06-01T13:56:52.614Z,4.60
2018-06-01T13:59:20.923Z,4.43
2018-06-01T14:01:49.241Z,4.30
2018-06-01T14:04:17.506Z,4.10
2018-06-01T14:06:45.800Z,4.77
2018-06-01T14:09:14.093Z,4.37
2018-06-01T14:11:42.681Z,4.90
2018-06-01T14:14:11.032Z,5.13
2018-06-01T14:16:39.503Z,4.63
2018-06-01T14:19:07.915Z,4.50
2018-06-01T14:21:36.164Z,4.07
2018-06-01T14:24:05.491Z,4.87
2018-06-01T14:26:33.909Z,5.10
2018-06-01T14:29:02.244Z,4.93
2018-06-01T14:31:30.504Z,5.40
2018-06-01T14:33:58.898Z,4.70
2018-06-01T14:36:27.131Z,5.00
2018-06-01T14:38:55.448Z,4.73
2018-06-01T14:41:23.706Z,4.83
2018-06-01T14:43:51.910Z,4.60
2018-06-01T14:46:20.175Z,4.70
2018-06-01T14:48:48.649Z,5.53
2018-06-01T14:51:16.930Z,4.40
2018-06-01T14:53:45.206Z,5.00
2018-06-01T14:56:13.415Z,5.10
2018-06-01T14:58:41.655Z,5.20
2018-06-01T15:01:09.930Z,4.53
2018-06-01T15:03:38.212Z,5.40
2018-06-01T15:06:06.484Z,9.07
2018-06-01T15:08:34.760Z,5.37
2018-06-01T15:11:03.118Z,4.43
2018-06-01T15:13:31.488Z,4.83
2018-06-01T15:16:00.083Z,4.73
2018-06-01T15:18:28.359Z,4.67
2018-06-01T15:20:56.648Z,5.17
2018-06-01T15:23:24.924Z,5.00
2018-06-01T15:25:53.301Z,5.93
2018-06-01T15:28:21.579Z,4.97
2018-06-01T15:30:49.855Z,5.57
2018-06-01T15:33:18.211Z,5.07
2018-06-01T15:35:46.511Z,5.57
2018-06-01T15:38:14.782Z,5.27
2018-06-01T15:40:43.063Z,4.83
2018-06-01T15:43:11.368Z,4.83
2018-06-01T15:45:39.712Z,5.53
2018-06-01T15:48:08.090Z,5.50
2018-06-01T15:50:36.468Z,5.10
2018-06-01T15:53:04.847Z,4.70
2018-06-01T15:55:33.075Z,4.37
2018-06-01T15:58:01.471Z,5.07
2018-06-01T16:00:29.752Z,5.77
2018-06-01T16:02:57.988Z,5.50
2018-06-01T16:05:26.225Z,3.93
2018-06-01T16:07:54.579Z,4.87
2018-06-01T16:10:22.881Z,4.87
2018-06-01T16:12:51.259Z,4.30
2018-06-01T16:15:19.636Z,4.87
2018-06-01T16:17:47.880Z,5.10
2018-06-01T16:20:16.390Z,4.73
2018-06-01T16:22:44.667Z,4.77
2018-06-01T16:25:13.045Z,4.70
2018-06-01T16:27:41.302Z,4.70
2018-06-01T16:30:09.596Z,4.67
2018-06-01T16:32:37.872Z,5.47
2018-06-01T16:35:06.250Z,4.80
2018-06-01T16:37:34.503Z,6.30
2018-06-01T16:40:02.840Z,5.27
2018-06-01T16:42:31.156Z,5.37
2018-06-01T16:44:59.374Z,5.83
2018-06-01T16:47:27.616Z,5.13
2018-06-01T16:49:56.113Z,5.73
2018-06-01T16:52:24.388Z,5.80
2018-06-01T16:54:52.736Z,5.80
2018-06-01T16:57:22.165Z,5.40
2018-06-01T16:59:50.519Z,4.90
2018-06-01T17:02:18.752Z,5.33
2018-06-01T17:04:47.099Z,4.93
2018-06-01T17:07:15.474Z,5.10
2018-06-01T17:09:43.752Z,5.10
2018-06-01T17:12:11.983Z,6.07
2018-06-01T17:14:40.406Z,5.13
2018-06-01T17:17:08.663Z,5.77
2018-06-01T17:19:36.941Z,5.40
2018-06-01T17:22:05.440Z,5.30
2018-06-01T17:24:33.815Z,5.83
2018-06-01T17:27:02.192Z,6.50
2018-06-01T17:29:30.417Z,6.00
2018-06-01T17:31:58.780Z,5.80
2018-06-01T17:34:27.096Z,5.63
2018-06-01T17:36:55.373Z,9.50
2018-06-01T17:39:23.569Z,5.83
2018-06-01T17:41:51.932Z,6.63
2018-06-01T17:44:20.476Z,5.47
2018-06-01T17:46:48.806Z,5.23
2018-06-01T17:49:17.058Z,5.47
2018-06-01T17:51:45.362Z,7.80
2018-06-01T17:54:13.595Z,5.60
2018-06-01T17:56:41.914Z,6.07
2018-06-01T17:59:10.191Z,6.80
2018-06-01T18:01:38.564Z,7.07
2018-06-01T18:04:06.826Z,7.33
2018-06-01T18:06:35.221Z,6.20
2018-06-01T18:09:03.531Z,5.83
2018-06-01T18:11:31.846Z,5.97
2018-06-01T18:14:00.259Z,6.50
2018-06-01T18:16:28.607Z,6.73
2018-06-01T18:18:56.842Z,6.37
2018-06-01T18:21:25.064Z,7.13
2018-06-01T18:23:53.564Z,6.23
2018-06-01T18:26:21.833Z,6.30
2018-06-01T18:28:50.259Z,8.57
2018-06-01T18:31:18.591Z,7.13
2018-06-01T18:33:46.852Z,8.27
2018-06-01T18:36:15.114Z,9.40
2018-06-01T18:38:43.419Z,7.53
2018-06-01T18:41:11.771Z,7.47
2018-06-01T18:43:40.177Z,8.07
2018-06-01T18:46:08.555Z,7.47
2018-06-01T18:48:36.937Z,7.80
2018-06-01T18:51:05.413Z,7.93
2018-06-01T18:53:33.622Z,7.67
2018-06-01T18:56:01.969Z,7.37
2018-06-01T18:58:30.317Z,7.53
2018-06-01T19:00:58.522Z,7.90
2018-06-01T19:03:27.100Z,7.77
2018-06-01T19:05:55.475Z,7.70
2018-06-01T19:08:23.831Z,8.67
2018-06-01T19:10:52.081Z,9.20
2018-06-01T19:13:20.479Z,7.70
2018-06-01T19:15:48.710Z,6.67
2018-06-01T19:18:17.057Z,8.33
2018-06-01T19:20:45.334Z,8.37
2018-06-01T19:23:13.585Z,8.67
2018-06-01T19:25:42.159Z,9.20
2018-06-01T19:28:10.469Z,7.93
2018-06-01T19:30:38.752Z,7.03
2018-06-01T19:33:06.972Z,7.87
2018-06-01T19:35:35.296Z,7.20
2018-06-01T19:38:03.645Z,7.47
2018-06-01T19:40:32.055Z,7.73
2018-06-01T19:43:00.293Z,7.20
2018-06-01T19:45:28.709Z,7.60
2018-06-01T19:47:56.981Z,7.83
2018-06-01T19:50:25.231Z,8.03
2018-06-01T19:52:53.507Z,7.73
2018-06-01T19:55:21.807Z,7.73
2018-06-01T19:57:50.083Z,8.50
2018-06-01T20:00:18.309Z,10.83
2018-06-01T20:02:46.569Z,10.13
2018-06-01T20:05:14.790Z,10.23
2018-06-01T20:07:43.144Z,10.03
2018-06-01T20:10:11.466Z,9.63
2018-06-01T20:12:39.948Z,9.77
2018-06-01T20:15:08.303Z,10.90
2018-06-01T20:17:36.522Z,9.40
2018-06-01T20:20:04.876Z,9.07
2018-06-01T20:22:33.088Z,8.37
2018-06-01T20:25:01.551Z,8.83
2018-06-01T20:27:29.989Z,8.87
2018-06-01T20:29:58.286Z,8.17
2018-06-01T20:32:26.560Z,10.33
2018-06-01T20:34:54.937Z,7.87
2018-06-01T20:37:23.298Z,7.40
2018-06-01T20:39:51.693Z,9.33
2018-06-01T20:42:20.049Z,9.87
2018-06-01T20:44:48.555Z,8.20
2018-06-01T20:47:16.837Z,9.57
2018-06-01T20:49:45.209Z,9.10
2018-06-01T20:52:13.735Z,8.73
2018-06-01T20:54:42.067Z,10.60
2018-06-01T20:57:10.428Z,11.60
2018-06-01T20:59:38.823Z,12.70
2018-06-01T21:02:07.098Z,12.03
2018-06-01T21:04:35.463Z,15.40
2018-06-01T21:07:03.751Z,10.27
2018-06-01T21:09:31.995Z,11.00
2018-06-01T21:12:00.303Z,10.03
2018-06-01T21:14:28.578Z,9.77
2018-06-01T21:16:57.061Z,11.10
2018-06-01T21:19:25.421Z,11.50
2018-06-01T21:21:53.817Z,13.03
2018-06-01T21:24:22.173Z,12.13
2018-06-01T21:26:50.677Z,10.20
2018-06-01T21:29:19.052Z,10.33
2018-06-01T21:31:47.635Z,10.47
2018-06-01T21:34:15.900Z,11.43
2018-06-01T21:36:44.395Z,11.10
2018-06-01T21:39:12.875Z,12.40
2018-06-01T21:41:41.129Z,10.97
2018-06-01T21:44:09.528Z,12.03
2018-06-01T21:46:38.007Z,12.00
2018-06-01T21:49:06.458Z,10.80
2018-06-01T21:51:34.846Z,9.87
2018-06-01T21:54:03.143Z,10.20
2018-06-01T21:56:31.359Z,10.47
2018-06-01T21:58:59.694Z,11.20
2018-06-01T22:01:28.074Z,11.33
2018-06-01T22:03:56.426Z,11.00
2018-06-01T22:06:24.804Z,11.90
2018-06-01T22:08:53.043Z,12.00
2018-06-01T22:11:21.294Z,15.47
2018-06-01T22:13:49.756Z,13.73
2018-06-01T22:16:18.176Z,13.50
2018-06-01T22:18:46.489Z,11.73
2018-06-01T22:21:14.765Z,10.13
2018-06-01T22:23:43.169Z,7.77
2018-06-01T22:26:11.544Z,7.27
2018-06-01T22:28:39.822Z,6.73
2018-06-01T22:31:08.199Z,7.40
2018-06-01T22:33:36.781Z,7.30
2018-06-01T22:36:05.138Z,8.07
2018-06-01T22:38:33.642Z,8.03
2018-06-01T22:41:01.915Z,7.77
2018-06-01T22:43:30.218Z,7.53
2018-06-01T22:45:58.451Z,8.63
2018-06-01T22:48:26.847Z,8.27
2018-06-01T22:50:55.103Z,8.13
2018-06-01T22:53:23.472Z,7.30
2018-06-01T22:55:51.705Z,7.00
2018-06-01T22:58:20.050Z,8.40
2018-06-01T23:00:48.335Z,7.40
2018-06-01T23:03:16.576Z,7.37
2018-06-01T23:05:44.990Z,6.80
2018-06-01T23:08:13.222Z,6.70
2018-06-01T23:10:41.585Z,6.60
2018-06-01T23:13:09.988Z,7.20
2018-06-01T23:15:38.274Z,6.73
2018-06-01T23:18:06.584Z,6.33
2018-06-01T23:20:35.046Z,7.17
2018-06-01T23:23:03.325Z,7.43
2018-06-01T23:25:31.637Z,8.27
2018-06-01T23:28:00.067Z,7.80
2018-06-01T23:30:28.458Z,8.20
2018-06-01T23:32:56.724Z,8.03
2018-06-01T23:35:25.321Z,7.50
2018-06-01T23:37:53.579Z,7.17
2018-06-01T23:40:21.912Z,8.20
2018-06-01T23:42:50.146Z,7.67
2018-06-01T23:45:18.425Z,7.67
2018-06-01T23:47:46.773Z,7.93
2018-06-01T23:50:14.991Z,8.57
2018-06-01T23:52:43.327Z,12.13
2018-06-01T23:55:11.709Z,10.10
2018-06-01T23:57:40.091Z,9.00
